createdAt,value
2023-09-01T00:00:55.035Z,11.64
2023-09-01T00:01:55.011Z,11.64
2023-09-01T00:02:55.142Z,11.62
2023-09-01T00:03:55.130Z,11.69
2023-09-01T00:04:55.046Z,11.67
2023-09-01T00:05:55.068Z,11.65
2023-09-01T00:06:55.075Z,11.58
2023-09-01T00:07:55.085Z,11.70
2023-09-01T00:08:55.098Z,11.64
2023-09-01T00:09:55.119Z,11.67
2023-09-01T00:10:55.133Z,11.67
2023-09-01T00:11:55.138Z,11.73
2023-09-01T00:12:55.152Z,11.70
2023-09-01T00:13:55.217Z,11.69
2023-09-01T00:14:55.191Z,11.65
2023-09-01T00:15:55.190Z,11.64
2023-09-01T00:16:55.283Z,11.64
2023-09-01T00:17:55.302Z,11.55
2023-09-01T00:18:55.231Z,11.55
2023-09-01T00:19:55.250Z,11.61
2023-09-01T00:20:55.258Z,11.57
2023-09-01T00:21:55.268Z,11.58
2023-09-01T00:22:55.280Z,11.47
2023-09-01T00:23:55.293Z,11.47
2023-09-01T00:24:55.307Z,11.47
2023-09-01T00:25:55.327Z,11.44
2023-09-01T00:26:55.332Z,11.47
2023-09-01T00:27:55.346Z,11.49
2023-09-01T00:28:55.357Z,11.44
2023-09-01T00:29:55.395Z,11.40
2023-09-01T00:30:55.487Z,11.43
2023-09-01T00:31:55.405Z,11.44
2023-09-01T00:32:55.481Z,11.49
2023-09-01T00:33:55.437Z,11.37
2023-09-01T00:34:55.447Z,11.47
2023-09-01T00:35:55.457Z,11.37
2023-09-01T00:36:55.475Z,11.37
2023-09-01T00:37:55.526Z,11.51
2023-09-01T00:38:55.492Z,11.44
2023-09-01T00:39:55.513Z,11.36
2023-09-01T00:40:55.524Z,11.49
2023-09-01T00:41:55.539Z,11.43
2023-09-01T00:42:55.575Z,11.35
2023-09-01T00:43:55.559Z,11.46
2023-09-01T00:44:55.591Z,11.43
2023-09-01T00:45:55.702Z,11.37
2023-09-01T00:46:55.658Z,11.42
2023-09-01T00:47:55.646Z,11.40
2023-09-01T00:48:55.627Z,11.37
2023-09-01T00:49:55.637Z,11.36
2023-09-01T00:50:55.664Z,11.37
2023-09-01T00:51:55.701Z,11.27
2023-09-01T00:52:55.677Z,11.27
2023-09-01T00:53:55.688Z,11.25
2023-09-01T00:54:55.700Z,11.22
2023-09-01T00:55:55.714Z,11.24
2023-09-01T00:56:55.728Z,11.28
2023-09-01T00:57:55.739Z,11.24
2023-09-01T00:58:55.754Z,11.17
2023-09-01T00:59:55.773Z,11.18
2023-09-01T01:00:55.781Z,11.15
2023-09-01T01:01:55.899Z,11.19
2023-09-01T01:02:55.913Z,11.11
2023-09-01T01:03:55.836Z,11.07
2023-09-01T01:04:55.836Z,11.15
2023-09-01T01:05:55.843Z,11.17
2023-09-01T01:06:55.856Z,11.10
2023-09-01T01:07:55.872Z,11.14
2023-09-01T01:08:55.881Z,11.17
2023-09-01T01:09:55.893Z,11.18
2023-09-01T01:10:55.907Z,11.18
2023-09-01T01:11:55.918Z,11.24
2023-09-01T01:12:55.932Z,11.22
2023-09-01T01:13:55.942Z,11.25
2023-09-01T01:14:55.959Z,11.25
2023-09-01T01:15:56.025Z,11.22
2023-09-01T01:16:55.983Z,11.14
2023-09-01T01:17:56.046Z,11.18
2023-09-01T01:18:56.006Z,11.19
2023-09-01T01:19:56.019Z,11.24
2023-09-01T01:20:56.033Z,11.27
2023-09-01T01:21:56.065Z,11.25
2023-09-01T01:22:56.057Z,11.29
2023-09-01T01:23:56.089Z,11.29
2023-09-01T01:24:56.084Z,11.33
2023-09-01T01:25:56.097Z,11.27
2023-09-01T01:26:56.110Z,11.28
2023-09-01T01:27:56.121Z,11.33
2023-09-01T01:28:56.141Z,11.28
2023-09-01T01:29:56.148Z,11.22
2023-09-01T01:30:56.161Z,11.28
2023-09-01T01:31:56.217Z,11.39
2023-09-01T01:32:56.211Z,11.33
2023-09-01T01:33:56.229Z,11.28
2023-09-01T01:34:56.208Z,11.19
2023-09-01T01:35:56.216Z,11.28
2023-09-01T01:36:56.240Z,11.25
2023-09-01T01:37:56.249Z,11.25
2023-09-01T01:38:56.257Z,11.25
2023-09-01T01:39:56.268Z,11.17
2023-09-01T01:40:56.283Z,11.14
2023-09-01T01:41:57.759Z,11.18
2023-09-01T01:42:56.312Z,11.21
2023-09-01T01:43:56.348Z,11.11
2023-09-01T01:44:56.339Z,11.10
2023-09-01T01:45:56.371Z,11.04
2023-09-01T01:46:56.365Z,11.17
2023-09-01T01:47:56.483Z,11.21
2023-09-01T01:48:56.438Z,11.15
2023-09-01T01:49:56.448Z,11.17
2023-09-01T01:50:56.572Z,11.19
2023-09-01T01:51:56.428Z,11.22
2023-09-01T01:52:56.436Z,11.22
2023-09-01T01:53:56.443Z,11.28
2023-09-01T01:54:56.459Z,11.29
2023-09-01T01:55:56.571Z,11.24
2023-09-01T01:56:56.485Z,11.33
2023-09-01T01:57:56.496Z,11.22
2023-09-01T01:58:56.513Z,11.29
2023-09-01T01:59:56.524Z,11.19
2023-09-01T02:00:56.556Z,11.29
2023-09-01T02:01:56.552Z,11.29
2023-09-01T02:02:56.645Z,11.24
2023-09-01T02:03:56.572Z,11.36
2023-09-01T02:04:56.644Z,11.32
2023-09-01T02:05:57.332Z,11.36
2023-09-01T02:06:56.633Z,11.28
2023-09-01T02:07:56.622Z,11.24
2023-09-01T02:08:56.635Z,11.39
2023-09-01T02:09:56.654Z,11.25
2023-09-01T02:10:56.662Z,11.36
2023-09-01T02:11:56.683Z,11.33
2023-09-01T02:12:56.696Z,11.36
2023-09-01T02:13:56.697Z,11.24
2023-09-01T02:14:56.711Z,11.18
2023-09-01T02:15:56.753Z,11.27
2023-09-01T02:16:56.741Z,11.25
2023-09-01T02:17:56.797Z,11.24
2023-09-01T02:18:56.783Z,11.15
2023-09-01T02:19:56.779Z,11.11
2023-09-01T02:20:56.793Z,11.17
2023-09-01T02:21:56.821Z,11.18
2023-09-01T02:22:56.814Z,11.09
2023-09-01T02:23:56.970Z,11.09
2023-09-01T02:24:56.852Z,11.02
2023-09-01T02:25:56.850Z,11.06
2023-09-01T02:26:56.866Z,10.94
2023-09-01T02:27:56.877Z,11.03
2023-09-01T02:28:56.910Z,10.99
2023-09-01T02:29:56.924Z,11.02
2023-09-01T02:30:56.975Z,11.00
2023-09-01T02:31:56.930Z,11.03
2023-09-01T02:32:56.985Z,11.04
2023-09-01T02:33:56.972Z,10.89
2023-09-01T02:34:56.970Z,10.96
2023-09-01T02:35:56.985Z,10.89
2023-09-01T02:36:56.996Z,10.97
2023-09-01T02:37:57.024Z,10.88
2023-09-01T02:38:57.025Z,10.91
2023-09-01T02:39:57.036Z,10.92
2023-09-01T02:40:57.044Z,10.96
2023-09-01T02:41:57.085Z,10.96
2023-09-01T02:42:57.070Z,10.94
2023-09-01T02:43:57.087Z,10.91
2023-09-01T02:44:57.101Z,10.94
2023-09-01T02:45:57.105Z,10.92
2023-09-01T02:46:57.128Z,10.91
2023-09-01T02:47:57.161Z,10.91
2023-09-01T02:48:57.146Z,10.94
2023-09-01T02:49:57.157Z,10.82
2023-09-01T02:50:57.173Z,10.85
2023-09-01T02:51:57.189Z,10.76
2023-09-01T02:52:57.209Z,10.81
2023-09-01T02:53:57.226Z,10.78
2023-09-01T02:54:57.220Z,10.78
2023-09-01T02:55:57.235Z,10.74
2023-09-01T02:56:57.248Z,10.73
2023-09-01T02:57:57.263Z,10.79
2023-09-01T02:58:57.271Z,10.84
2023-09-01T02:59:57.290Z,10.84
2023-09-01T03:00:57.336Z,10.79
2023-09-01T03:01:57.324Z,10.79
2023-09-01T03:02:57.405Z,10.85
2023-09-01T03:03:57.342Z,10.82
2023-09-01T03:04:57.355Z,10.76
2023-09-01T03:05:57.363Z,10.85
2023-09-01T03:06:57.373Z,10.86
2023-09-01T03:07:57.382Z,10.85
2023-09-01T03:08:57.400Z,10.81
2023-09-01T03:09:57.428Z,10.82
2023-09-01T03:10:57.423Z,10.74
2023-09-01T03:11:57.467Z,10.79
2023-09-01T03:12:57.447Z,10.85
2023-09-01T03:13:57.462Z,10.82
2023-09-01T03:14:57.475Z,10.82
2023-09-01T03:15:57.507Z,10.71
2023-09-01T03:16:57.499Z,10.76
2023-09-01T03:17:57.589Z,10.73
2023-09-01T03:18:57.524Z,10.79
2023-09-01T03:19:57.538Z,10.79
2023-09-01T03:20:57.557Z,10.79
2023-09-01T03:21:57.558Z,10.81
2023-09-01T03:22:57.575Z,10.79
2023-09-01T03:23:57.630Z,10.73
2023-09-01T03:24:57.601Z,10.73
2023-09-01T03:25:57.631Z,10.73
2023-09-01T03:26:57.644Z,10.79
2023-09-01T03:27:57.638Z,10.79
2023-09-01T03:28:58.188Z,10.74
2023-09-01T03:29:57.661Z,10.78
2023-09-01T03:30:57.675Z,10.67
2023-09-01T03:31:57.725Z,10.67
2023-09-01T03:32:57.743Z,10.67
2023-09-01T03:33:57.722Z,10.64
2023-09-01T03:34:57.733Z,10.59
2023-09-01T03:35:57.736Z,10.60
2023-09-01T03:36:57.757Z,10.59
2023-09-01T03:37:57.764Z,10.52
2023-09-01T03:38:57.777Z,10.51
2023-09-01T03:39:57.792Z,10.45
2023-09-01T03:40:57.802Z,10.51
2023-09-01T03:41:57.847Z,10.51
2023-09-01T03:42:57.830Z,10.51
2023-09-01T03:43:57.841Z,10.44
2023-09-01T03:44:57.852Z,10.48
2023-09-01T03:45:57.876Z,10.52
2023-09-01T03:46:57.875Z,10.52
2023-09-01T03:47:57.960Z,10.48
2023-09-01T03:48:57.902Z,10.51
2023-09-01T03:49:57.910Z,10.48
2023-09-01T03:50:57.926Z,10.51
2023-09-01T03:51:57.964Z,10.53
2023-09-01T03:52:57.952Z,10.51
2023-09-01T03:53:57.962Z,10.56
2023-09-01T03:54:57.976Z,10.45
2023-09-01T03:55:57.983Z,10.52
2023-09-01T03:56:58.000Z,10.42
2023-09-01T03:57:58.024Z,10.51
2023-09-01T03:58:58.033Z,10.44
2023-09-01T03:59:58.036Z,10.48
2023-09-01T04:00:58.048Z,10.48
2023-09-01T04:01:58.063Z,10.45
2023-09-01T04:02:58.144Z,10.47
2023-09-01T04:03:58.105Z,10.53
2023-09-01T04:04:58.114Z,10.47
2023-09-01T04:05:58.109Z,10.45
2023-09-01T04:06:58.138Z,10.44
2023-09-01T04:07:58.138Z,10.45
2023-09-01T04:08:58.142Z,10.48
2023-09-01T04:09:58.156Z,10.53
2023-09-01T04:10:58.170Z,10.51
2023-09-01T04:11:58.183Z,10.47
2023-09-01T04:12:58.196Z,10.51
2023-09-01T04:13:58.241Z,10.45
2023-09-01T04:14:58.218Z,10.44
2023-09-01T04:15:58.285Z,10.45
2023-09-01T04:16:58.243Z,10.45
2023-09-01T04:17:58.299Z,10.48
2023-09-01T04:18:58.268Z,10.45
2023-09-01T04:19:58.276Z,10.40
2023-09-01T04:20:58.292Z,10.44
2023-09-01T04:21:58.306Z,10.38
2023-09-01T04:22:58.328Z,10.38
2023-09-01T04:23:58.330Z,10.36
2023-09-01T04:24:58.368Z,10.36
2023-09-01T04:25:58.496Z,10.45
2023-09-01T04:26:58.380Z,10.38
2023-09-01T04:27:58.381Z,10.36
2023-09-01T04:28:58.396Z,10.36
2023-09-01T04:30:09.072Z,10.41
2023-09-01T04:30:58.413Z,10.48
2023-09-01T04:31:58.422Z,10.34
2023-09-01T04:32:58.530Z,10.34
2023-09-01T04:34:00.977Z,10.41
2023-09-01T04:34:58.471Z,10.48
2023-09-01T04:35:58.469Z,10.42
2023-09-01T04:36:58.482Z,10.41
2023-09-01T04:37:58.519Z,10.41
2023-09-01T04:38:58.504Z,10.47
2023-09-01T04:39:58.545Z,10.40
2023-09-01T04:40:58.533Z,10.38
2023-09-01T04:41:58.542Z,10.36
2023-09-01T04:42:58.561Z,10.40
2023-09-01T04:43:58.680Z,10.36
2023-09-01T04:44:58.584Z,10.41
2023-09-01T04:45:58.696Z,10.42
2023-09-01T04:46:58.611Z,10.40
2023-09-01T04:47:58.692Z,10.32
2023-09-01T04:48:58.628Z,10.41
2023-09-01T04:49:58.652Z,10.38
2023-09-01T04:50:58.659Z,10.29
2023-09-01T04:51:58.673Z,10.38
2023-09-01T04:52:58.685Z,10.38
2023-09-01T04:53:58.692Z,10.45
2023-09-01T04:54:58.702Z,10.33
2023-09-01T04:55:58.717Z,10.51
2023-09-01T04:56:58.725Z,10.40
2023-09-01T04:57:58.734Z,10.45
2023-09-01T04:58:58.748Z,10.47
2023-09-01T04:59:58.766Z,10.36
2023-09-01T05:00:58.844Z,10.44
2023-09-01T05:01:58.806Z,10.42
2023-09-01T05:02:58.851Z,10.44
2023-09-01T05:03:58.853Z,10.48
2023-09-01T05:04:58.827Z,10.44
2023-09-01T05:05:58.844Z,10.47
2023-09-01T05:06:58.848Z,10.52
2023-09-01T05:07:58.861Z,10.45
2023-09-01T05:08:58.872Z,10.51
2023-09-01T05:09:58.897Z,10.45
2023-09-01T05:10:58.894Z,10.52
2023-09-01T05:11:58.920Z,10.55
2023-09-01T05:12:58.924Z,10.52
2023-09-01T05:13:58.943Z,10.48
2023-09-01T05:14:58.948Z,10.59
2023-09-01T05:15:58.961Z,10.61
2023-09-01T05:16:59.006Z,10.60
2023-09-01T05:17:59.057Z,10.59
2023-09-01T05:18:59.007Z,10.51
2023-09-01T05:19:59.008Z,10.66
2023-09-01T05:20:59.018Z,10.66
2023-09-01T05:21:59.042Z,10.64
2023-09-01T05:22:59.092Z,10.63
2023-09-01T05:23:59.057Z,10.70
2023-09-01T05:24:59.070Z,10.71
2023-09-01T05:25:59.089Z,10.73
2023-09-01T05:26:59.098Z,10.74
2023-09-01T05:27:59.141Z,10.78
2023-09-01T05:28:59.126Z,10.81
2023-09-01T05:29:59.131Z,10.74
2023-09-01T05:30:59.171Z,10.82
2023-09-01T05:31:59.158Z,10.71
2023-09-01T05:32:59.199Z,10.78
2023-09-01T05:33:59.203Z,10.73
2023-09-01T05:34:59.235Z,10.85
2023-09-01T05:35:59.210Z,10.74
2023-09-01T05:36:59.228Z,10.71
2023-09-01T05:37:59.245Z,10.70
2023-09-01T05:38:59.243Z,10.74
2023-09-01T05:40:01.489Z,10.79
2023-09-01T05:40:59.275Z,10.73
2023-09-01T05:41:59.282Z,10.79
2023-09-01T05:42:59.294Z,10.76
2023-09-01T05:43:59.343Z,10.79
2023-09-01T05:44:59.315Z,10.74
2023-09-01T05:45:59.396Z,10.76
2023-09-01T05:46:59.343Z,10.67
2023-09-01T05:47:59.451Z,10.70
2023-09-01T05:48:59.365Z,10.68
2023-09-01T05:49:59.501Z,10.78
2023-09-01T05:50:59.402Z,10.74
2023-09-01T05:51:59.401Z,10.79
2023-09-01T05:52:59.414Z,10.74
2023-09-01T05:53:59.435Z,10.78
2023-09-01T05:54:59.439Z,10.78
2023-09-01T05:55:59.470Z,10.76
2023-09-01T05:56:59.464Z,10.78
2023-09-01T05:57:59.480Z,10.78
2023-09-01T05:58:59.500Z,10.74
2023-09-01T05:59:59.583Z,10.81
2023-09-01T06:00:59.524Z,10.79
2023-09-01T06:01:59.607Z,10.76
2023-09-01T06:02:59.589Z,10.71
2023-09-01T06:03:59.622Z,10.86
2023-09-01T06:04:59.580Z,10.86
2023-09-01T06:05:59.597Z,10.79
2023-09-01T06:06:59.589Z,10.74
2023-09-01T06:07:59.606Z,10.81
2023-09-01T06:08:59.629Z,10.86
2023-09-01T06:09:59.634Z,10.84
2023-09-01T06:10:59.639Z,10.81
2023-09-01T06:11:59.652Z,10.85
2023-09-01T06:12:59.667Z,10.88
2023-09-01T06:13:59.689Z,10.96
2023-09-01T06:14:59.685Z,10.97
2023-09-01T06:15:59.763Z,10.92
2023-09-01T06:16:59.717Z,11.04
2023-09-01T06:17:59.766Z,11.10
2023-09-01T06:18:59.740Z,11.14
2023-09-01T06:19:59.766Z,11.18
2023-09-01T06:20:59.761Z,11.15
2023-09-01T06:21:59.793Z,11.39
2023-09-01T06:22:59.789Z,11.43
2023-09-01T06:23:59.803Z,11.58
2023-09-01T06:24:59.820Z,11.78
2023-09-01T06:25:59.853Z,11.83
2023-09-01T06:26:59.843Z,11.86
2023-09-01T06:27:59.866Z,11.94
2023-09-01T06:28:59.868Z,11.88
2023-09-01T06:29:59.876Z,11.96
2023-09-01T06:30:59.923Z,11.90
2023-09-01T06:31:59.906Z,11.95
2023-09-01T06:32:59.941Z,11.90
2023-09-01T06:33:59.929Z,11.98
2023-09-01T06:34:59.943Z,12.05
2023-09-01T06:35:59.972Z,12.09
2023-09-01T06:36:59.980Z,12.13
2023-09-01T06:38:00.088Z,12.23
2023-09-01T06:38:59.986Z,12.23
2023-09-01T06:40:00.035Z,12.27
2023-09-01T06:41:00.016Z,12.29
2023-09-01T06:42:00.037Z,12.39
2023-09-01T06:43:00.044Z,12.42
2023-09-01T06:44:00.062Z,12.50
2023-09-01T06:45:00.079Z,12.47
2023-09-01T06:46:00.115Z,12.49
2023-09-01T06:47:00.089Z,12.45
2023-09-01T06:48:00.246Z,12.45
2023-09-01T06:49:00.120Z,12.53
2023-09-01T06:50:00.166Z,12.57
2023-09-01T06:51:00.153Z,12.50
2023-09-01T06:52:00.154Z,12.35
2023-09-01T06:53:00.185Z,12.56
2023-09-01T06:54:00.248Z,12.57
2023-09-01T06:55:00.190Z,12.54
2023-09-01T06:56:00.241Z,12.62
2023-09-01T06:57:00.218Z,12.67
2023-09-01T06:58:00.272Z,12.70
2023-09-01T06:59:00.244Z,12.83
2023-09-01T07:00:00.264Z,12.78
2023-09-01T07:01:00.275Z,12.86
2023-09-01T07:02:00.294Z,12.96
2023-09-01T07:03:00.328Z,13.03
2023-09-01T07:04:00.365Z,13.07
2023-09-01T07:05:00.326Z,13.11
2023-09-01T07:06:00.346Z,13.12
2023-09-01T07:07:00.356Z,13.10
2023-09-01T07:08:00.366Z,13.11
2023-09-01T07:09:00.372Z,13.10
2023-09-01T07:10:00.411Z,13.12
2023-09-01T07:11:00.400Z,13.23
2023-09-01T07:12:00.416Z,13.22
2023-09-01T07:13:00.426Z,13.23
2023-09-01T07:14:00.442Z,13.12
2023-09-01T07:15:00.456Z,13.26
2023-09-01T07:16:00.517Z,13.11
2023-09-01T07:17:00.480Z,13.07
2023-09-01T07:18:00.560Z,13.32
2023-09-01T07:19:00.512Z,13.38
2023-09-01T07:20:00.578Z,13.33
2023-09-01T07:21:00.544Z,13.41
2023-09-01T07:22:00.545Z,13.46
2023-09-01T07:23:00.568Z,13.45
2023-09-01T07:24:00.585Z,13.51
2023-09-01T07:25:00.594Z,13.57
2023-09-01T07:26:00.620Z,13.66
2023-09-01T07:27:00.611Z,13.82
2023-09-01T07:28:00.630Z,13.81
2023-09-01T07:29:00.634Z,13.75
2023-09-01T07:30:00.672Z,13.84
2023-09-01T07:31:00.690Z,13.88
2023-09-01T07:32:00.679Z,13.69
2023-09-01T07:33:00.715Z,13.84
2023-09-01T07:34:00.703Z,13.82
2023-09-01T07:35:00.723Z,13.84
2023-09-01T07:36:00.747Z,13.88
2023-09-01T07:37:00.750Z,13.99
2023-09-01T07:38:00.774Z,14.15
2023-09-01T07:39:00.769Z,14.18
2023-09-01T07:40:00.804Z,14.14
2023-09-01T07:41:00.804Z,14.17
2023-09-01T07:42:00.833Z,14.22
2023-09-01T07:43:00.822Z,14.21
2023-09-01T07:44:00.841Z,14.35
2023-09-01T07:45:00.856Z,14.37
2023-09-01T07:46:00.973Z,14.39
2023-09-01T07:47:00.875Z,14.46
2023-09-01T07:48:14.343Z,14.42
2023-09-01T07:49:00.906Z,14.45
2023-09-01T07:50:00.922Z,14.51
2023-09-01T07:51:00.946Z,14.51
2023-09-01T07:52:00.948Z,14.47
2023-09-01T07:53:00.979Z,14.65
2023-09-01T07:54:00.985Z,14.64
2023-09-01T07:55:00.993Z,14.72
2023-09-01T07:56:01.066Z,14.68
2023-09-01T07:57:01.021Z,14.70
2023-09-01T07:58:01.054Z,14.65
2023-09-01T07:59:01.047Z,14.72
2023-09-01T08:00:01.124Z,14.75
2023-09-01T08:01:01.085Z,14.69
2023-09-01T08:02:01.093Z,14.65
2023-09-01T08:03:01.250Z,14.70
2023-09-01T08:04:01.185Z,14.70
2023-09-01T08:05:01.135Z,14.65
2023-09-01T08:06:01.157Z,14.72
2023-09-01T08:07:01.156Z,14.65
2023-09-01T08:08:01.173Z,14.84
2023-09-01T08:09:01.186Z,14.84
2023-09-01T08:10:01.199Z,14.92
2023-09-01T08:11:01.223Z,15.03
2023-09-01T08:12:01.227Z,15.03
2023-09-01T08:13:01.242Z,15.13
2023-09-01T08:14:01.283Z,15.32
2023-09-01T08:15:01.372Z,15.28
2023-09-01T08:16:01.284Z,15.19
2023-09-01T08:17:01.386Z,15.14
2023-09-01T08:18:01.409Z,15.21
2023-09-01T08:19:01.337Z,15.54
2023-09-01T08:20:01.340Z,15.69
2023-09-01T08:21:01.352Z,15.84
2023-09-01T08:22:01.373Z,15.74
2023-09-01T08:23:01.383Z,15.89
2023-09-01T08:24:01.411Z,15.76
2023-09-01T08:25:01.431Z,15.83
2023-09-01T08:26:01.435Z,15.90
2023-09-01T08:27:01.444Z,15.82
2023-09-01T08:28:01.457Z,15.59
2023-09-01T08:29:01.475Z,15.41
2023-09-01T08:30:01.535Z,15.50
2023-09-01T08:31:01.552Z,15.54
2023-09-01T08:32:01.518Z,15.49
2023-09-01T08:33:01.603Z,15.60
2023-09-01T08:34:01.559Z,15.87
2023-09-01T08:35:01.571Z,16.08
2023-09-01T08:36:01.588Z,16.27
2023-09-01T08:37:01.594Z,16.12
2023-09-01T08:38:01.605Z,16.00
2023-09-01T08:39:01.620Z,15.89
2023-09-01T08:40:01.632Z,15.94
2023-09-01T08:41:01.680Z,15.90
2023-09-01T08:42:01.662Z,15.86
2023-09-01T08:43:01.675Z,15.87
2023-09-01T08:44:01.693Z,15.87
2023-09-01T08:45:01.747Z,16.04
2023-09-01T08:46:13.787Z,16.17
2023-09-01T08:47:01.752Z,15.96
2023-09-01T08:48:01.786Z,16.00
2023-09-01T08:49:01.765Z,16.14
2023-09-01T08:50:01.788Z,16.27
2023-09-01T08:51:01.805Z,16.35
2023-09-01T08:52:01.813Z,16.43
2023-09-01T08:53:01.839Z,16.83
2023-09-01T08:54:01.850Z,17.04
2023-09-01T08:55:01.878Z,17.08
2023-09-01T08:56:01.902Z,17.22
2023-09-01T08:57:01.889Z,17.14
2023-09-01T08:58:01.910Z,17.07
2023-09-01T08:59:01.928Z,17.04
2023-09-01T09:00:01.934Z,16.89
2023-09-01T09:01:01.948Z,16.94
2023-09-01T09:02:02.008Z,17.12
2023-09-01T09:03:07.669Z,17.40
2023-09-01T09:04:02.121Z,17.49
2023-09-01T09:05:02.011Z,17.56
2023-09-01T09:06:02.038Z,17.43
2023-09-01T09:07:02.042Z,17.14
2023-09-01T09:08:02.060Z,17.12
2023-09-01T09:09:02.071Z,16.89
2023-09-01T09:10:02.099Z,16.97
2023-09-01T09:11:02.109Z,17.00
2023-09-01T09:12:02.125Z,17.03
2023-09-01T09:13:02.135Z,17.14
2023-09-01T09:14:09.938Z,17.14
2023-09-01T09:15:02.183Z,17.30
2023-09-01T09:16:02.220Z,17.64
2023-09-01T09:17:02.200Z,17.79
2023-09-01T09:18:02.423Z,17.82
2023-09-01T09:19:02.353Z,17.90
2023-09-01T09:20:02.321Z,18.00
2023-09-01T09:21:02.281Z,17.89
2023-09-01T09:22:02.275Z,17.81
2023-09-01T09:23:02.299Z,17.93
2023-09-01T09:24:15.546Z,18.00
2023-09-01T09:25:02.326Z,17.84
2023-09-01T09:26:02.341Z,17.95
2023-09-01T09:27:02.367Z,18.11
2023-09-01T09:28:02.382Z,18.18
2023-09-01T09:29:02.399Z,18.20
2023-09-01T09:30:02.448Z,18.21
2023-09-01T09:31:02.424Z,18.29
2023-09-01T09:32:02.461Z,18.33
2023-09-01T09:33:02.503Z,18.41
2023-09-01T09:34:02.489Z,18.51
2023-09-01T09:35:02.494Z,18.55
2023-09-01T09:36:02.507Z,18.62
2023-09-01T09:37:02.524Z,18.76
2023-09-01T09:38:02.537Z,18.45
2023-09-01T09:39:02.562Z,18.58
2023-09-01T09:40:02.568Z,18.63
2023-09-01T09:41:02.594Z,18.39
2023-09-01T09:42:02.612Z,18.41
2023-09-01T09:43:02.633Z,18.51
2023-09-01T09:44:02.641Z,18.58
2023-09-01T09:45:02.661Z,18.57
2023-09-01T09:46:02.679Z,18.47
2023-09-01T09:47:02.688Z,18.39
2023-09-01T09:48:02.783Z,18.48
2023-09-01T09:49:02.820Z,18.63
2023-09-01T09:50:02.774Z,18.65
2023-09-01T09:51:02.760Z,18.84
2023-09-01T09:52:02.777Z,18.87
2023-09-01T09:53:02.797Z,18.98
2023-09-01T09:54:02.804Z,18.94
2023-09-01T09:55:02.831Z,19.13
2023-09-01T09:56:02.839Z,19.25
2023-09-01T09:57:02.868Z,19.22
2023-09-01T09:58:02.877Z,19.23
2023-09-01T09:59:02.892Z,18.73
2023-09-01T10:00:02.924Z,18.85
2023-09-01T10:01:03.000Z,19.02
2023-09-01T10:02:03.031Z,19.19
2023-09-01T10:03:02.985Z,19.19
2023-09-01T10:04:03.017Z,19.10
2023-09-01T10:05:03.010Z,19.22
2023-09-01T10:06:03.037Z,19.28
2023-09-01T10:07:03.037Z,18.98
2023-09-01T10:08:03.058Z,19.21
2023-09-01T10:09:03.069Z,19.56
2023-09-01T10:10:03.080Z,19.74
2023-09-01T10:11:03.102Z,19.98
2023-09-01T10:12:03.131Z,20.26
2023-09-01T10:13:03.147Z,20.33
2023-09-01T10:14:03.150Z,20.31
2023-09-01T10:15:03.171Z,20.21
2023-09-01T10:16:03.235Z,20.01
2023-09-01T10:17:03.212Z,19.76
2023-09-01T10:18:03.267Z,20.01
2023-09-01T10:19:03.248Z,20.24
2023-09-01T10:20:03.264Z,20.35
2023-09-01T10:21:03.282Z,20.59
2023-09-01T10:22:03.318Z,20.43
2023-09-01T10:23:03.320Z,20.33
2023-09-01T10:24:03.346Z,20.28
2023-09-01T10:25:03.355Z,20.52
2023-09-01T10:26:03.372Z,20.67
2023-09-01T10:27:03.396Z,20.76
2023-09-01T10:28:03.406Z,20.77
2023-09-01T10:29:03.455Z,20.84
2023-09-01T10:30:03.446Z,20.72
2023-09-01T10:31:03.478Z,20.41
2023-09-01T10:32:03.485Z,20.38
2023-09-01T10:33:03.597Z,20.28
2023-09-01T10:34:03.522Z,20.02
2023-09-01T10:35:03.544Z,20.01
2023-09-01T10:36:03.574Z,19.99
2023-09-01T10:37:03.580Z,20.03
2023-09-01T10:38:03.624Z,20.39
2023-09-01T10:39:03.619Z,20.57
2023-09-01T10:40:03.636Z,20.47
2023-09-01T10:41:03.656Z,20.82
2023-09-01T10:42:03.678Z,20.58
2023-09-01T10:43:03.694Z,20.84
2023-09-01T10:44:03.720Z,20.50
2023-09-01T10:45:03.732Z,20.69
2023-09-01T10:46:03.755Z,20.64
2023-09-01T10:47:03.851Z,20.13
2023-09-01T10:48:03.975Z,20.28
2023-09-01T10:49:03.807Z,20.82
2023-09-01T10:50:03.975Z,20.91
2023-09-01T10:51:03.849Z,21.04
2023-09-01T10:52:03.862Z,20.88
2023-09-01T10:53:03.886Z,20.92
2023-09-01T10:54:03.939Z,20.62
2023-09-01T10:55:03.987Z,20.88
2023-09-01T10:56:03.942Z,20.94
2023-09-01T10:57:04.133Z,21.22
2023-09-01T10:58:04.038Z,20.91
2023-09-01T10:59:04.119Z,20.91
2023-09-01T11:00:04.058Z,20.85
2023-09-01T11:01:04.053Z,21.10
2023-09-01T11:02:04.107Z,21.40
2023-09-01T11:03:04.110Z,21.35
2023-09-01T11:04:04.104Z,21.67
2023-09-01T11:05:04.109Z,21.68
2023-09-01T11:06:04.132Z,21.56
2023-09-01T11:07:04.146Z,21.79
2023-09-01T11:08:04.169Z,21.86
2023-09-01T11:09:04.189Z,21.61
2023-09-01T11:10:04.228Z,21.77
2023-09-01T11:11:04.230Z,21.86
2023-09-01T11:12:04.252Z,22.15
2023-09-01T11:13:04.269Z,22.28
2023-09-01T11:14:04.292Z,22.27
2023-09-01T11:15:04.305Z,22.31
2023-09-01T11:16:06.541Z,21.80
2023-09-01T11:17:04.348Z,21.42
2023-09-01T11:18:04.414Z,21.47
2023-09-01T11:19:04.402Z,21.92
2023-09-01T11:20:04.419Z,22.25
2023-09-01T11:21:04.426Z,22.20
2023-09-01T11:22:04.453Z,22.61
2023-09-01T11:23:04.471Z,22.45
2023-09-01T11:24:04.515Z,21.79
2023-09-01T11:25:04.503Z,21.37
2023-09-01T11:26:04.572Z,21.40
2023-09-01T11:27:04.543Z,21.27
2023-09-01T11:28:04.580Z,21.37
2023-09-01T11:29:04.581Z,21.56
2023-09-01T11:30:04.625Z,22.10
2023-09-01T11:31:04.941Z,22.43
2023-09-01T11:32:05.971Z,22.83
2023-09-01T11:33:04.762Z,22.95
2023-09-01T11:34:04.685Z,22.68
2023-09-01T11:35:04.703Z,23.01
2023-09-01T11:36:04.724Z,22.75
2023-09-01T11:37:04.744Z,22.40
2023-09-01T11:38:04.760Z,22.03
2023-09-01T11:39:04.783Z,22.03
2023-09-01T11:40:04.855Z,22.15
2023-09-01T11:41:05.044Z,22.51
2023-09-01T11:42:04.863Z,22.12
2023-09-01T11:43:04.884Z,22.20
2023-09-01T11:44:04.909Z,22.51
2023-09-01T11:45:04.918Z,22.49
2023-09-01T11:46:05.168Z,22.68
2023-09-01T11:47:04.952Z,22.65
2023-09-01T11:48:04.996Z,22.90
2023-09-01T11:49:04.998Z,22.98
2023-09-01T11:50:05.014Z,22.49
2023-09-01T11:51:05.025Z,22.70
2023-09-01T11:52:05.047Z,22.82
2023-09-01T11:53:05.070Z,22.82
2023-09-01T11:54:05.087Z,22.33
2023-09-01T11:55:05.119Z,21.80
2023-09-01T11:56:05.131Z,21.94
2023-09-01T11:57:05.149Z,22.30
2023-09-01T11:58:05.197Z,22.65
2023-09-01T11:59:05.193Z,22.75
2023-09-01T12:00:05.216Z,22.76
2023-09-01T12:01:05.231Z,23.05
2023-09-01T12:02:05.278Z,23.20
2023-09-01T12:03:05.525Z,23.19
2023-09-01T12:04:05.359Z,23.43
2023-09-01T12:05:05.323Z,23.43
2023-09-01T12:06:06.390Z,23.00
2023-09-01T12:07:05.369Z,22.98
2023-09-01T12:08:05.387Z,23.39
2023-09-01T12:09:05.437Z,23.84
2023-09-01T12:10:05.420Z,24.09
2023-09-01T12:11:05.442Z,23.40
2023-09-01T12:12:05.468Z,23.20
2023-09-01T12:13:05.491Z,22.67
2023-09-01T12:14:05.529Z,22.46
2023-09-01T12:15:05.534Z,22.52
2023-09-01T12:16:05.572Z,22.42
2023-09-01T12:17:05.707Z,22.55
2023-09-01T12:18:05.675Z,22.57
2023-09-01T12:19:05.623Z,22.33
2023-09-01T12:20:05.684Z,22.20
2023-09-01T12:21:05.664Z,22.65
2023-09-01T12:22:05.677Z,22.88
2023-09-01T12:23:05.700Z,22.97
2023-09-01T12:24:05.723Z,23.43
2023-09-01T12:25:05.750Z,23.84
2023-09-01T12:26:05.759Z,23.65
2023-09-01T12:27:05.838Z,22.82
2023-09-01T12:28:05.802Z,22.72
2023-09-01T12:29:06.924Z,22.91
2023-09-01T12:30:05.974Z,22.67
2023-09-01T12:31:05.866Z,22.79
2023-09-01T12:32:05.966Z,22.72
2023-09-01T12:33:05.934Z,22.54
2023-09-01T12:34:05.977Z,22.68
2023-09-01T12:35:05.994Z,23.20
2023-09-01T12:36:06.239Z,23.53
2023-09-01T12:37:05.999Z,23.57
2023-09-01T12:38:06.039Z,23.63
2023-09-01T12:39:06.034Z,23.78
2023-09-01T12:40:06.058Z,23.17
2023-09-01T12:41:07.813Z,22.80
2023-09-01T12:42:06.150Z,23.27
2023-09-01T12:43:06.124Z,23.25
2023-09-01T12:44:06.187Z,23.40
2023-09-01T12:45:06.281Z,23.36
2023-09-01T12:46:06.266Z,23.23
2023-09-01T12:47:08.647Z,23.31
2023-09-01T12:48:06.308Z,23.22
2023-09-01T12:49:06.251Z,23.23
2023-09-01T12:50:06.273Z,23.22
2023-09-01T12:51:06.335Z,23.02
2023-09-01T12:52:06.313Z,23.46
2023-09-01T12:53:06.350Z,23.15